sensor_id;sensor_type;location;lat;lon;timestamp;pressure;altitude;pressure_sealevel;temperature;humidity
55538;BME280;41383;51.418;7.286;2023-03-25T00:00:29;98605.47;;;9.90;76.40
55538;BME280;41383;51.418;7.286;2023-03-25T00:02:54;98608.97;;;10.15;75.65
55538;BME280;41383;51.418;7.286;2023-03-25T00:05:20;98606.97;;;10.02;74.75
55538;BME280;41383;51.418;7.286;2023-03-25T00:07:48;98620.00;;;10.05;75.24
55538;BME280;41383;51.418;7.286;2023-03-25T00:10:14;98622.38;;;9.87;75.29
55538;BME280;41383;51.418;7.286;2023-03-25T00:12:40;98612.53;;;9.91;75.39
55538;BME280;41383;51.418;7.286;2023-03-25T00:15:07;98602.44;;;9.92;75.38
55538;BME280;41383;51.418;7.286;2023-03-25T00:17:33;98602.69;;;9.96;74.74
55538;BME280;41383;51.418;7.286;2023-03-25T00:20:00;98591.78;;;9.96;75.29
55538;BME280;41383;51.418;7.286;2023-03-25T00:22:28;98599.94;;;9.71;75.03
55538;BME280;41383;51.418;7.286;2023-03-25T00:24:53;98599.31;;;9.79;74.22
55538;BME280;41383;51.418;7.286;2023-03-25T00:27:18;98598.84;;;9.72;74.68
55538;BME280;41383;51.418;7.286;2023-03-25T00:29:44;98603.25;;;9.68;75.14
55538;BME280;41383;51.418;7.286;2023-03-25T00:32:11;98595.88;;;9.68;74.92
55538;BME280;41383;51.418;7.286;2023-03-25T00:34:37;98602.75;;;9.90;74.93
55538;BME280;41383;51.418;7.286;2023-03-25T00:37:07;98592.84;;;10.00;74.75
55538;BME280;41383;51.418;7.286;2023-03-25T00:39:33;98591.09;;;10.09;73.53
55538;BME280;41383;51.418;7.286;2023-03-25T00:41:59;98597.81;;;9.92;74.30
55538;BME280;41383;51.418;7.286;2023-03-25T00:44:26;98594.63;;;9.85;75.15
55538;BME280;41383;51.418;7.286;2023-03-25T00:46:51;98602.78;;;10.10;74.36
55538;BME280;41383;51.418;7.286;2023-03-25T00:49:16;98589.00;;;10.01;73.92
55538;BME280;41383;51.418;7.286;2023-03-25T00:51:42;98588.84;;;9.92;74.90
55538;BME280;41383;51.418;7.286;2023-03-25T00:54:08;98589.59;;;9.98;74.65
55538;BME280;41383;51.418;7.286;2023-03-25T00:56:34;98590.16;;;9.95;74.70
55538;BME280;41383;51.418;7.286;2023-03-25T00:58:59;98585.06;;;10.12;74.58
55538;BME280;41383;51.418;7.286;2023-03-25T01:01:26;98582.38;;;10.07;74.54
55538;BME280;41383;51.418;7.286;2023-03-25T01:03:56;98584.38;;;10.01;73.99
55538;BME280;41383;51.418;7.286;2023-03-25T01:06:25;98590.28;;;9.84;74.71
55538;BME280;41383;51.418;7.286;2023-03-25T01:08:54;98591.19;;;9.99;74.60
55538;BME280;41383;51.418;7.286;2023-03-25T01:11:23;98581.00;;;9.85;74.97
55538;BME280;41383;51.418;7.286;2023-03-25T01:13:49;98589.28;;;9.99;74.64
55538;BME280;41383;51.418;7.286;2023-03-25T01:16:15;98593.06;;;10.03;74.16
55538;BME280;41383;51.418;7.286;2023-03-25T01:18:41;98588.44;;;10.04;74.26
55538;BME280;41383;51.418;7.286;2023-03-25T01:21:07;98575.91;;;10.03;73.88
55538;BME280;41383;51.418;7.286;2023-03-25T01:23:33;98588.44;;;10.04;73.66
55538;BME280;41383;51.418;7.286;2023-03-25T01:25:58;98579.41;;;9.84;74.32
55538;BME280;41383;51.418;7.286;2023-03-25T01:28:24;98583.16;;;9.88;73.72
55538;BME280;41383;51.418;7.286;2023-03-25T01:30:50;98572.41;;;9.73;74.00
55538;BME280;41383;51.418;7.286;2023-03-25T01:33:15;98579.50;;;9.74;74.58
55538;BME280;41383;51.418;7.286;2023-03-25T01:35:41;98577.66;;;9.93;74.36
55538;BME280;41383;51.418;7.286;2023-03-25T01:38:07;98575.44;;;9.96;73.44
55538;BME280;41383;51.418;7.286;2023-03-25T01:40:32;98584.25;;;9.87;73.71
55538;BME280;41383;51.418;7.286;2023-03-25T01:42:57;98571.34;;;9.74;74.08
55538;BME280;41383;51.418;7.286;2023-03-25T01:45:25;98577.22;;;9.81;73.61
55538;BME280;41383;51.418;7.286;2023-03-25T01:47:55;98579.78;;;9.72;73.52
55538;BME280;41383;51.418;7.286;2023-03-25T01:50:24;98577.44;;;9.90;73.13
55538;BME280;41383;51.418;7.286;2023-03-25T01:52:53;98579.97;;;9.81;72.90
55538;BME280;41383;51.418;7.286;2023-03-25T01:55:21;98575.63;;;9.80;73.00
55538;BME280;41383;51.418;7.286;2023-03-25T01:57:48;98580.31;;;9.99;71.86
55538;BME280;41383;51.418;7.286;2023-03-25T02:00:21;98572.19;;;9.93;71.53
55538;BME280;41383;51.418;7.286;2023-03-25T02:02:47;98570.59;;;9.92;71.30
55538;BME280;41383;51.418;7.286;2023-03-25T02:05:23;98576.53;;;9.95;71.72
55538;BME280;41383;51.418;7.286;2023-03-25T02:07:53;98576.19;;;10.01;71.50
55538;BME280;41383;51.418;7.286;2023-03-25T02:10:19;98587.38;;;10.00;71.04
55538;BME280;41383;51.418;7.286;2023-03-25T02:12:45;98579.78;;;9.97;71.03
55538;BME280;41383;51.418;7.286;2023-03-25T02:15:13;98582.97;;;10.04;71.17
55538;BME280;41383;51.418;7.286;2023-03-25T02:18:02;98581.97;;;9.95;70.06
55538;BME280;41383;51.418;7.286;2023-03-25T02:38:36;98567.22;;;10.01;70.51
55538;BME280;41383;51.418;7.286;2023-03-25T02:41:15;98573.59;;;9.91;69.54
55538;BME280;41383;51.418;7.286;2023-03-25T02:43:50;98574.19;;;10.12;69.28
55538;BME280;41383;51.418;7.286;2023-03-25T02:46:18;98569.47;;;9.69;69.76
55538;BME280;41383;51.418;7.286;2023-03-25T02:49:10;98577.31;;;9.76;70.35
55538;BME280;41383;51.418;7.286;2023-03-25T02:51:41;98572.53;;;10.11;70.07
55538;BME280;41383;51.418;7.286;2023-03-25T02:54:10;98580.72;;;10.11;69.67
55538;BME280;41383;51.418;7.286;2023-03-25T02:56:37;98574.84;;;9.99;69.68
55538;BME280;41383;51.418;7.286;2023-03-25T02:59:05;98569.66;;;9.78;70.23
55538;BME280;41383;51.418;7.286;2023-03-25T03:01:32;98576.09;;;9.87;69.89
55538;BME280;41383;51.418;7.286;2023-03-25T03:03:59;98561.50;;;9.78;70.12
55538;BME280;41383;51.418;7.286;2023-03-25T03:06:24;98563.81;;;9.90;70.05
55538;BME280;41383;51.418;7.286;2023-03-25T03:11:26;98572.19;;;9.69;69.95
55538;BME280;41383;51.418;7.286;2023-03-25T03:16:49;98572.41;;;9.73;70.37
55538;BME280;41383;51.418;7.286;2023-03-25T03:19:34;98560.59;;;9.58;70.99
55538;BME280;41383;51.418;7.286;2023-03-25T03:27:32;98555.94;;;9.34;71.82
55538;BME280;41383;51.418;7.286;2023-03-25T03:30:12;98547.72;;;9.39;71.52
55538;BME280;41383;51.418;7.286;2023-03-25T03:32:52;98557.56;;;9.35;71.44
55538;BME280;41383;51.418;7.286;2023-03-25T03:35:52;98555.38;;;9.37;71.86
55538;BME280;41383;51.418;7.286;2023-03-25T03:38:24;98560.06;;;9.56;72.13
55538;BME280;41383;51.418;7.286;2023-03-25T03:40:55;98567.47;;;9.80;71.58
55538;BME280;41383;51.418;7.286;2023-03-25T03:43:32;98565.03;;;9.49;73.02
55538;BME280;41383;51.418;7.286;2023-03-25T03:46:24;98557.00;;;9.63;72.24
55538;BME280;41383;51.418;7.286;2023-03-25T03:48:57;98553.59;;;10.01;71.51
55538;BME280;41383;51.418;7.286;2023-03-25T03:51:28;98562.78;;;9.56;72.91
55538;BME280;41383;51.418;7.286;2023-03-25T03:54:00;98554.00;;;9.64;72.84
55538;BME280;41383;51.418;7.286;2023-03-25T03:56:32;98571.97;;;9.65;73.12
55538;BME280;41383;51.418;7.286;2023-03-25T03:59:03;98565.00;;;9.54;73.34
55538;BME280;41383;51.418;7.286;2023-03-25T04:01:42;98572.97;;;9.45;73.95
55538;BME280;41383;51.418;7.286;2023-03-25T04:04:19;98578.72;;;9.43;73.84
55538;BME280;41383;51.418;7.286;2023-03-25T04:07:00;98566.94;;;9.48;74.03
55538;BME280;41383;51.418;7.286;2023-03-25T04:12:40;98570.09;;;9.31;74.83
55538;BME280;41383;51.418;7.286;2023-03-25T04:15:07;98556.28;;;9.27;74.26
55538;BME280;41383;51.418;7.286;2023-03-25T04:17:32;98571.03;;;9.16;75.21
55538;BME280;41383;51.418;7.286;2023-03-25T04:19:58;98562.19;;;9.34;74.64
55538;BME280;41383;51.418;7.286;2023-03-25T04:22:24;98566.25;;;9.37;74.00
55538;BME280;41383;51.418;7.286;2023-03-25T04:24:50;98564.97;;;9.29;74.16
55538;BME280;41383;51.418;7.286;2023-03-25T04:27:16;98571.16;;;9.35;74.13
55538;BME280;41383;51.418;7.286;2023-03-25T04:29:42;98563.00;;;9.35;73.43
55538;BME280;41383;51.418;7.286;2023-03-25T04:32:12;98564.81;;;9.45;73.21
55538;BME280;41383;51.418;7.286;2023-03-25T04:34:38;98557.06;;;9.28;73.07
55538;BME280;41383;51.418;7.286;2023-03-25T04:37:03;98556.56;;;9.55;72.36
55538;BME280;41383;51.418;7.286;2023-03-25T04:39:28;98570.31;;;9.64;72.24
55538;BME280;41383;51.418;7.286;2023-03-25T04:41:57;98559.84;;;9.52;72.63
55538;BME280;41383;51.418;7.286;2023-03-25T04:44:26;98558.63;;;9.39;73.31
55538;BME280;41383;51.418;7.286;2023-03-25T04:46:53;98548.72;;;9.19;74.28
55538;BME280;41383;51.418;7.286;2023-03-25T04:49:21;98561.81;;;9.11;74.58
55538;BME280;41383;51.418;7.286;2023-03-25T04:51:51;98554.94;;;9.25;74.12
55538;BME280;41383;51.418;7.286;2023-03-25T04:54:20;98553.72;;;9.06;75.07
55538;BME280;41383;51.418;7.286;2023-03-25T04:56:50;98558.38;;;9.36;74.77
55538;BME280;41383;51.418;7.286;2023-03-25T04:59:17;98558.84;;;9.43;75.00
55538;BME280;41383;51.418;7.286;2023-03-25T05:01:43;98571.97;;;9.36;74.89
55538;BME280;41383;51.418;7.286;2023-03-25T05:04:11;98562.66;;;9.12;75.32
55538;BME280;41383;51.418;7.286;2023-03-25T05:06:40;98534.38;;;9.13;74.78
55538;BME280;41383;51.418;7.286;2023-03-25T05:09:09;98541.78;;;9.32;74.44
55538;BME280;41383;51.418;7.286;2023-03-25T05:11:36;98548.72;;;9.19;74.27
55538;BME280;41383;51.418;7.286;2023-03-25T05:14:03;98546.00;;;9.19;74.02
55538;BME280;41383;51.418;7.286;2023-03-25T05:16:28;98547.16;;;9.42;73.11
55538;BME280;41383;51.418;7.286;2023-03-25T05:18:54;98545.09;;;9.29;73.54
55538;BME280;41383;51.418;7.286;2023-03-25T05:21:19;98550.38;;;9.44;73.02
55538;BME280;41383;51.418;7.286;2023-03-25T05:23:45;98550.44;;;9.39;73.12
55538;BME280;41383;51.418;7.286;2023-03-25T05:26:11;98550.09;;;9.46;73.47
55538;BME280;41383;51.418;7.286;2023-03-25T05:28:37;98549.44;;;9.30;73.35
55538;BME280;41383;51.418;7.286;2023-03-25T05:31:03;98560.84;;;9.32;74.22
55538;BME280;41383;51.418;7.286;2023-03-25T05:33:37;98557.06;;;9.28;75.31
55538;BME280;41383;51.418;7.286;2023-03-25T05:36:13;98564.16;;;9.29;75.39
55538;BME280;41383;51.418;7.286;2023-03-25T05:38:40;98557.31;;;9.31;76.04
55538;BME280;41383;51.418;7.286;2023-03-25T05:41:07;98572.78;;;9.36;76.09
55538;BME280;41383;51.418;7.286;2023-03-25T05:43:36;98563.97;;;9.50;75.63
55538;BME280;41383;51.418;7.286;2023-03-25T05:46:01;98568.44;;;9.35;75.54
55538;BME280;41383;51.418;7.286;2023-03-25T05:48:28;98570.31;;;9.05;76.75
55538;BME280;41383;51.418;7.286;2023-03-25T05:50:56;98569.59;;;9.29;76.38
55538;BME280;41383;51.418;7.286;2023-03-25T05:53:22;98559.75;;;9.33;75.43
55538;BME280;41383;51.418;7.286;2023-03-25T05:55:48;98575.41;;;9.46;75.43
55538;BME280;41383;51.418;7.286;2023-03-25T05:58:16;98578.66;;;9.49;75.27
55538;BME280;41383;51.418;7.286;2023-03-25T06:00:42;98564.28;;;9.43;75.16
55538;BME280;41383;51.418;7.286;2023-03-25T06:03:08;98561.50;;;9.48;75.17
55538;BME280;41383;51.418;7.286;2023-03-25T06:05:34;98580.47;;;9.29;75.69
55538;BME280;41383;51.418;7.286;2023-03-25T06:07:59;98564.16;;;9.29;75.83
55538;BME280;41383;51.418;7.286;2023-03-25T06:10:25;98559.53;;;8.89;76.76
55538;BME280;41383;51.418;7.286;2023-03-25T06:12:51;98572.31;;;9.23;76.42
55538;BME280;41383;51.418;7.286;2023-03-25T06:15:18;98572.38;;;9.18;76.36
55538;BME280;41383;51.418;7.286;2023-03-25T06:17:45;98567.91;;;9.33;76.08
55538;BME280;41383;51.418;7.286;2023-03-25T06:20:12;98571.78;;;9.27;75.93
55538;BME280;41383;51.418;7.286;2023-03-25T06:22:42;98577.13;;;9.37;75.73
55538;BME280;41383;51.418;7.286;2023-03-25T06:25:10;98563.44;;;9.48;75.11
55538;BME280;41383;51.418;7.286;2023-03-25T06:27:36;98580.47;;;9.29;75.99
55538;BME280;41383;51.418;7.286;2023-03-25T06:30:08;98572.81;;;9.31;76.40
55538;BME280;41383;51.418;7.286;2023-03-25T06:32:34;98565.00;;;9.54;75.43
55538;BME280;41383;51.418;7.286;2023-03-25T06:34:59;98565.00;;;9.54;75.14
55538;BME280;41383;51.418;7.286;2023-03-25T06:37:25;98578.41;;;9.45;75.29
55538;BME280;41383;51.418;7.286;2023-03-25T06:39:51;98566.28;;;9.32;76.50
55538;BME280;41383;51.418;7.286;2023-03-25T06:42:20;98573.44;;;9.52;76.09
55538;BME280;41383;51.418;7.286;2023-03-25T06:44:46;98571.59;;;9.48;75.92
55538;BME280;41383;51.418;7.286;2023-03-25T06:47:11;98582.94;;;9.55;76.08
55538;BME280;41383;51.418;7.286;2023-03-25T06:49:36;98581.13;;;9.45;76.33
55538;BME280;41383;51.418;7.286;2023-03-25T06:52:01;98591.81;;;9.36;76.64
55538;BME280;41383;51.418;7.286;2023-03-25T06:54:27;98580.03;;;9.46;76.79
55538;BME280;41383;51.418;7.286;2023-03-25T06:56:52;98592.94;;;9.30;77.74
55538;BME280;41383;51.418;7.286;2023-03-25T06:59:17;98601.41;;;9.58;76.65
55538;BME280;41383;51.418;7.286;2023-03-25T07:01:42;98602.28;;;9.53;76.82
55538;BME280;41383;51.418;7.286;2023-03-25T07:04:08;98596.94;;;9.08;78.05
55538;BME280;41383;51.418;7.286;2023-03-25T07:06:33;98601.00;;;9.10;79.08
55538;BME280;41383;51.418;7.286;2023-03-25T07:08:58;98604.81;;;9.44;78.42
55538;BME280;41383;51.418;7.286;2023-03-25T07:11:27;98612.97;;;9.09;79.33
55538;BME280;41383;51.418;7.286;2023-03-25T07:13:53;98611.19;;;8.89;81.02
55538;BME280;41383;51.418;7.286;2023-03-25T07:16:19;98622.63;;;8.86;81.91
55538;BME280;41383;51.418;7.286;2023-03-25T07:18:45;98629.50;;;8.73;82.43
55538;BME280;41383;51.418;7.286;2023-03-25T07:21:11;98609.47;;;9.04;82.11
55538;BME280;41383;51.418;7.286;2023-03-25T07:23:36;98613.53;;;9.41;80.69
55538;BME280;41383;51.418;7.286;2023-03-25T07:26:01;98608.88;;;9.47;79.73
55538;BME280;41383;51.418;7.286;2023-03-25T07:28:26;98608.47;;;9.59;78.96
55538;BME280;41383;51.418;7.286;2023-03-25T07:30:52;98605.69;;;9.64;78.27
55538;BME280;41383;51.418;7.286;2023-03-25T07:33:17;98615.28;;;9.62;79.40
55538;BME280;41383;51.418;7.286;2023-03-25T07:35:42;98606.75;;;9.68;78.44
55538;BME280;41383;51.418;7.286;2023-03-25T07:38:08;98610.75;;;9.76;77.38
55538;BME280;41383;51.418;7.286;2023-03-25T07:40:34;98611.53;;;9.82;77.84
55538;BME280;41383;51.418;7.286;2023-03-25T07:42:59;98605.16;;;9.67;77.56
55538;BME280;41383;51.418;7.286;2023-03-25T07:45:24;98602.56;;;9.81;77.43
55538;BME280;41383;51.418;7.286;2023-03-25T07:47:50;98602.69;;;9.96;76.69
55538;BME280;41383;51.418;7.286;2023-03-25T07:50:16;98614.63;;;10.00;75.69
55538;BME280;41383;51.418;7.286;2023-03-25T07:52:42;98614.72;;;9.89;76.54
55538;BME280;41383;51.418;7.286;2023-03-25T07:55:08;98595.50;;;9.51;76.58
55538;BME280;41383;51.418;7.286;2023-03-25T07:57:33;98619.13;;;9.55;77.33
55538;BME280;41383;51.418;7.286;2023-03-25T07:59:58;98619.44;;;9.54;76.55
55538;BME280;41383;51.418;7.286;2023-03-25T08:02:24;98615.19;;;9.72;76.36
55538;BME280;41383;51.418;7.286;2023-03-25T08:04:49;98626.47;;;9.55;76.15
55538;BME280;41383;51.418;7.286;2023-03-25T08:07:14;98614.25;;;9.82;76.73
55538;BME280;41383;51.418;7.286;2023-03-25T08:09:40;98633.59;;;10.05;75.13
55538;BME280;41383;51.418;7.286;2023-03-25T08:12:07;98627.56;;;9.84;75.63
55538;BME280;41383;51.418;7.286;2023-03-25T08:14:33;98624.09;;;9.78;75.05
55538;BME280;41383;51.418;7.286;2023-03-25T08:16:58;98634.47;;;9.76;74.30
55538;BME280;41383;51.418;7.286;2023-03-25T08:19:24;98641.47;;;9.82;74.39
55538;BME280;41383;51.418;7.286;2023-03-25T08:21:49;98645.69;;;9.69;74.31
55538;BME280;41383;51.418;7.286;2023-03-25T08:24:14;98656.34;;;9.60;72.96
55538;BME280;41383;51.418;7.286;2023-03-25T08:26:40;98660.16;;;9.29;74.45
55538;BME280;41383;51.418;7.286;2023-03-25T08:29:05;98651.34;;;9.43;73.79
55538;BME280;41383;51.418;7.286;2023-03-25T08:31:32;98646.38;;;9.50;73.91
55538;BME280;41383;51.418;7.286;2023-03-25T08:33:58;98641.13;;;9.59;73.03
55538;BME280;41383;51.418;7.286;2023-03-25T08:36:24;98638.25;;;9.75;72.74
55538;BME280;41383;51.418;7.286;2023-03-25T08:38:49;98628.50;;;9.74;72.22
55538;BME280;41383;51.418;7.286;2023-03-25T08:41:15;98631.41;;;10.07;71.92
55538;BME280;41383;51.418;7.286;2023-03-25T08:43:40;98634.06;;;9.88;72.40
55538;BME280;41383;51.418;7.286;2023-03-25T08:46:06;98636.84;;;10.32;71.38
55538;BME280;41383;51.418;7.286;2023-03-25T08:48:31;98644.63;;;10.44;70.11
55538;BME280;41383;51.418;7.286;2023-03-25T08:50:57;98634.44;;;10.30;70.94
55538;BME280;41383;51.418;7.286;2023-03-25T08:53:22;98626.66;;;10.18;70.22
55538;BME280;41383;51.418;7.286;2023-03-25T08:55:52;98643.47;;;10.25;70.97
55538;BME280;41383;51.418;7.286;2023-03-25T08:58:18;98620.41;;;10.18;70.89
55538;BME280;41383;51.418;7.286;2023-03-25T09:00:43;98628.28;;;10.19;70.96
55538;BME280;41383;51.418;7.286;2023-03-25T09:03:09;98634.44;;;10.30;70.42
55538;BME280;41383;51.418;7.286;2023-03-25T09:05:38;98620.47;;;10.37;70.38
55538;BME280;41383;51.418;7.286;2023-03-25T09:08:04;98620.38;;;10.42;69.53
55538;BME280;41383;51.418;7.286;2023-03-25T09:10:29;98630.66;;;10.26;70.50
55538;BME280;41383;51.418;7.286;2023-03-25T09:12:55;98632.56;;;10.50;69.94
55538;BME280;41383;51.418;7.286;2023-03-25T09:15:20;98634.59;;;10.39;69.94
55538;BME280;41383;51.418;7.286;2023-03-25T09:17:45;98628.16;;;10.54;69.76
55538;BME280;41383;51.418;7.286;2023-03-25T09:20:11;98634.97;;;10.57;70.26
55538;BME280;41383;51.418;7.286;2023-03-25T09:22:37;98628.66;;;11.00;68.68
55538;BME280;41383;51.418;7.286;2023-03-25T09:25:04;98614.78;;;11.16;68.74
55538;BME280;41383;51.418;7.286;2023-03-25T09:27:30;98640.59;;;11.04;68.76
55538;BME280;41383;51.418;7.286;2023-03-25T09:29:56;98629.69;;;11.04;68.33
55538;BME280;41383;51.418;7.286;2023-03-25T09:32:21;98631.72;;;10.74;68.80
55538;BME280;41383;51.418;7.286;2023-03-25T09:34:46;98632.09;;;10.86;68.68
55538;BME280;41383;51.418;7.286;2023-03-25T09:37:12;98626.03;;;11.28;68.08
55538;BME280;41383;51.418;7.286;2023-03-25T09:39:37;98627.94;;;11.28;67.89
55538;BME280;41383;51.418;7.286;2023-03-25T09:45:39;98628.47;;;11.30;67.52
55538;BME280;41383;51.418;7.286;2023-03-25T09:48:02;98627.81;;;11.19;68.14
55538;BME280;41383;51.418;7.286;2023-03-25T09:50:29;98639.69;;;10.90;69.68
55538;BME280;41383;51.418;7.286;2023-03-25T09:53:04;98635.13;;;11.04;70.76
55538;BME280;41383;51.418;7.286;2023-03-25T09:55:35;98637.16;;;10.74;70.77
55538;BME280;41383;51.418;7.286;2023-03-25T10:00:57;98638.88;;;10.70;71.27
55538;BME280;41383;51.418;7.286;2023-03-25T10:03:33;98629.81;;;10.94;69.59
55538;BME280;41383;51.418;7.286;2023-03-25T10:06:19;98643.59;;;11.03;68.90
55538;BME280;41383;51.418;7.286;2023-03-25T10:08:54;98637.63;;;11.20;68.51
55538;BME280;41383;51.418;7.286;2023-03-25T10:14:19;98649.63;;;10.80;69.14
55538;BME280;41383;51.418;7.286;2023-03-25T10:17:09;98631.81;;;10.88;67.71
55538;BME280;41383;51.418;7.286;2023-03-25T10:22:35;98632.19;;;10.81;68.48
55538;BME280;41383;51.418;7.286;2023-03-25T10:25:11;98636.31;;;10.98;68.31
55538;BME280;41383;51.418;7.286;2023-03-25T10:27:41;98623.84;;;11.11;67.83
55538;BME280;41383;51.418;7.286;2023-03-25T10:32:38;98629.06;;;11.60;67.09
55538;BME280;41383;51.418;7.286;2023-03-25T10:35:10;98642.16;;;11.77;65.78
55538;BME280;41383;51.418;7.286;2023-03-25T10:37:39;98637.72;;;11.48;65.82
55538;BME280;41383;51.418;7.286;2023-03-25T10:40:22;98643.94;;;11.35;65.75
55538;BME280;41383;51.418;7.286;2023-03-25T10:45:25;98637.72;;;11.48;65.66
55538;BME280;41383;51.418;7.286;2023-03-25T10:47:53;98653.75;;;11.69;64.50
55538;BME280;41383;51.418;7.286;2023-03-25T10:50:23;98639.81;;;11.85;64.52
55538;BME280;41383;51.418;7.286;2023-03-25T10:52:49;98626.03;;;11.76;63.89
55538;BME280;41383;51.418;7.286;2023-03-25T10:55:25;98649.03;;;11.89;63.34
55538;BME280;41383;51.418;7.286;2023-03-25T10:57:53;98637.88;;;11.71;63.42
55538;BME280;41383;51.418;7.286;2023-03-25T11:00:20;98654.59;;;11.84;62.84
55538;BME280;41383;51.418;7.286;2023-03-25T11:02:49;98634.88;;;12.01;63.67
55538;BME280;41383;51.418;7.286;2023-03-25T11:05:18;98652.84;;;12.21;62.56
55538;BME280;41383;51.418;7.286;2023-03-25T11:07:50;98635.84;;;12.53;62.30
55538;BME280;41383;51.418;7.286;2023-03-25T11:10:23;98655.06;;;12.33;62.47
55538;BME280;41383;51.418;7.286;2023-03-25T11:12:51;98654.75;;;12.35;63.26
55538;BME280;41383;51.418;7.286;2023-03-25T11:15:24;98657.63;;;11.96;64.20
55538;BME280;41383;51.418;7.286;2023-03-25T11:20:38;98678.97;;;11.47;69.11
55538;BME280;41383;51.418;7.286;2023-03-25T11:23:06;98676.75;;;10.71;72.76
55538;BME280;41383;51.418;7.286;2023-03-25T11:25:38;98690.38;;;10.91;73.88
55538;BME280;41383;51.418;7.286;2023-03-25T11:28:18;98683.56;;;10.44;74.57
55538;BME280;41383;51.418;7.286;2023-03-25T11:31:06;98683.00;;;10.23;76.04
55538;BME280;41383;51.418;7.286;2023-03-25T11:33:33;98684.31;;;10.55;75.32
55538;BME280;41383;51.418;7.286;2023-03-25T11:38:50;98691.22;;;10.91;74.43
55538;BME280;41383;51.418;7.286;2023-03-25T11:41:17;98683.91;;;10.86;74.61
55538;BME280;41383;51.418;7.286;2023-03-25T11:43:46;98679.38;;;11.20;74.92
55538;BME280;41383;51.418;7.286;2023-03-25T11:46:15;98674.84;;;11.11;75.42
55538;BME280;41383;51.418;7.286;2023-03-25T11:48:43;98683.84;;;10.92;75.65
55538;BME280;41383;51.418;7.286;2023-03-25T11:51:17;98670.78;;;10.89;76.64
55538;BME280;41383;51.418;7.286;2023-03-25T11:53:46;98682.66;;;11.17;76.15
55538;BME280;41383;51.418;7.286;2023-03-25T11:56:16;98695.75;;;10.77;76.63
55538;BME280;41383;51.418;7.286;2023-03-25T11:58:46;98701.91;;;10.38;77.98
55538;BME280;41383;51.418;7.286;2023-03-25T12:01:29;98680.34;;;10.67;78.45
55538;BME280;41383;51.418;7.286;2023-03-25T12:04:13;98678.19;;;11.27;78.36
55538;BME280;41383;51.418;7.286;2023-03-25T12:06:56;98675.56;;;11.55;78.30
55538;BME280;41383;51.418;7.286;2023-03-25T12:09:23;98680.78;;;11.85;77.18
55538;BME280;41383;51.418;7.286;2023-03-25T12:14:31;98663.25;;;12.19;75.09
55538;BME280;41383;51.418;7.286;2023-03-25T12:17:08;98683.28;;;11.67;76.56
55538;BME280;41383;51.418;7.286;2023-03-25T12:22:28;98680.63;;;11.62;76.34
55538;BME280;41383;51.418;7.286;2023-03-25T12:28:15;98673.00;;;11.25;76.63
55538;BME280;41383;51.418;7.286;2023-03-25T12:31:06;98680.16;;;11.02;77.70
55538;BME280;41383;51.418;7.286;2023-03-25T12:36:33;98665.88;;;11.63;75.32
55538;BME280;41383;51.418;7.286;2023-03-25T12:49:49;98653.16;;;12.34;71.34
55538;BME280;41383;51.418;7.286;2023-03-25T12:52:28;98680.47;;;12.20;69.37
55538;BME280;41383;51.418;7.286;2023-03-25T12:57:54;98650.41;;;12.34;67.95
55538;BME280;41383;51.418;7.286;2023-03-25T13:03:45;98638.28;;;12.40;68.57
55538;BME280;41383;51.418;7.286;2023-03-25T13:06:38;98636.22;;;12.60;67.63
55538;BME280;41383;51.418;7.286;2023-03-25T13:09:10;98656.88;;;12.66;67.64
55538;BME280;41383;51.418;7.286;2023-03-25T13:11:51;98639.38;;;12.53;66.51
55538;BME280;41383;51.418;7.286;2023-03-25T13:14:24;98643.41;;;12.56;66.15
55538;BME280;41383;51.418;7.286;2023-03-25T13:16:54;98625.66;;;12.67;64.97
55538;BME280;41383;51.418;7.286;2023-03-25T13:19:25;98628.59;;;13.08;64.04
55538;BME280;41383;51.418;7.286;2023-03-25T13:21:55;98641.19;;;12.58;63.06
55538;BME280;41383;51.418;7.286;2023-03-25T13:24:29;98635.44;;;12.45;63.72
55538;BME280;41383;51.418;7.286;2023-03-25T13:26:58;98634.03;;;12.34;65.51
55538;BME280;41383;51.418;7.286;2023-03-25T13:29:36;98643.28;;;12.61;64.96
55538;BME280;41383;51.418;7.286;2023-03-25T13:32:08;98629.91;;;12.73;64.08
55538;BME280;41383;51.418;7.286;2023-03-25T13:34:46;98628.66;;;12.29;64.69
55538;BME280;41383;51.418;7.286;2023-03-25T13:40:05;98656.16;;;11.56;67.47
55538;BME280;41383;51.418;7.286;2023-03-25T13:45:24;98659.75;;;10.99;72.47
55538;BME280;41383;51.418;7.286;2023-03-25T13:48:06;98675.94;;;10.71;73.31
55538;BME280;41383;51.418;7.286;2023-03-25T13:50:34;98658.84;;;10.84;73.02
55538;BME280;41383;51.418;7.286;2023-03-25T13:53:15;98676.38;;;11.17;73.13
55538;BME280;41383;51.418;7.286;2023-03-25T13:55:53;98669.28;;;11.35;72.58
55538;BME280;41383;51.418;7.286;2023-03-25T13:58:47;98661.25;;;11.77;71.18
55538;BME280;41383;51.418;7.286;2023-03-25T14:12:20;98671.22;;;12.01;67.21
55538;BME280;41383;51.418;7.286;2023-03-25T14:14:52;98671.47;;;12.19;66.19
55538;BME280;41383;51.418;7.286;2023-03-25T14:17:19;98681.94;;;11.98;65.18
55538;BME280;41383;51.418;7.286;2023-03-25T14:19:49;98687.59;;;12.01;65.73
55538;BME280;41383;51.418;7.286;2023-03-25T14:22:22;98703.69;;;12.03;66.22
55538;BME280;41383;51.418;7.286;2023-03-25T14:24:49;98692.41;;;11.76;66.60
55538;BME280;41383;51.418;7.286;2023-03-25T14:27:23;98679.09;;;11.89;66.36
55538;BME280;41383;51.418;7.286;2023-03-25T14:43:35;98682.44;;;10.75;73.09
55538;BME280;41383;51.418;7.286;2023-03-25T14:54:03;98677.31;;;10.44;76.75
55538;BME280;41383;51.418;7.286;2023-03-25T14:56:37;98706.94;;;10.26;78.98
55538;BME280;41383;51.418;7.286;2023-03-25T14:59:08;98736.38;;;10.24;80.97
55538;BME280;41383;51.418;7.286;2023-03-25T15:01:37;98711.09;;;10.18;81.46
55538;BME280;41383;51.418;7.286;2023-03-25T15:04:14;98698.63;;;10.12;81.06
55538;BME280;41383;51.418;7.286;2023-03-25T15:06:41;98691.81;;;10.88;79.68
55538;BME280;41383;51.418;7.286;2023-03-25T15:09:10;98695.72;;;11.01;79.39
55538;BME280;41383;51.418;7.286;2023-03-25T15:11:42;98695.63;;;10.87;79.67
55538;BME280;41383;51.418;7.286;2023-03-25T15:14:21;98709.09;;;10.78;80.50
55538;BME280;41383;51.418;7.286;2023-03-25T15:19:18;98701.81;;;10.49;80.19